createdAt,value
2018-05-24T00:02:12.250Z,78.00
2018-05-24T00:04:40.759Z,77.90
2018-05-24T00:07:09.054Z,77.50
2018-05-24T00:09:37.407Z,76.80
2018-05-24T00:12:05.701Z,77.70
2018-05-24T00:14:34.811Z,78.60
2018-05-24T00:17:03.111Z,77.90
2018-05-24T00:19:31.412Z,77.30
2018-05-24T00:21:59.718Z,77.90
2018-05-24T00:24:28.038Z,77.20
2018-05-24T00:26:57.147Z,76.60
2018-05-24T00:29:25.467Z,76.70
2018-05-24T00:31:53.985Z,78.00
2018-05-24T00:34:22.280Z,77.70
2018-05-24T00:36:50.252Z,76.30
2018-05-24T00:39:18.571Z,75.60
2018-05-24T00:41:46.884Z,76.20
2018-05-24T00:44:15.190Z,75.70
2018-05-24T00:46:45.101Z,75.40
2018-05-24T00:49:13.412Z,74.80
2018-05-24T00:51:41.725Z,75.20
2018-05-24T00:54:10.059Z,74.70
2018-05-24T00:56:38.355Z,74.70
2018-05-24T00:59:06.668Z,73.60
2018-05-24T01:01:34.979Z,74.40
2018-05-24T01:04:03.284Z,73.30
2018-05-24T01:06:31.593Z,73.90
2018-05-24T01:09:00.911Z,72.10
2018-05-24T01:11:29.217Z,72.10
2018-05-24T01:13:57.734Z,73.00
2018-05-24T01:16:26.026Z,73.10
2018-05-24T01:18:54.332Z,72.40
2018-05-24T01:21:22.653Z,72.80
2018-05-24T01:23:50.987Z,72.50
2018-05-24T01:26:18.947Z,72.10
2018-05-24T01:28:47.416Z,72.90
2018-05-24T01:31:15.726Z,72.30
2018-05-24T01:33:44.832Z,72.70
2018-05-24T01:36:13.887Z,71.30
2018-05-24T01:38:42.287Z,71.30
2018-05-24T01:41:10.748Z,71.50
2018-05-24T01:43:39.047Z,70.50
2018-05-24T01:46:07.353Z,71.10
2018-05-24T01:48:35.649Z,69.90
2018-05-24T01:51:03.974Z,70.90
2018-05-24T01:53:32.286Z,69.40
2018-05-24T01:56:00.589Z,69.90
2018-05-24T01:58:29.700Z,69.40
2018-05-24T02:00:58.131Z,69.30
2018-05-24T02:03:26.423Z,69.80
2018-05-24T02:05:54.730Z,70.90
2018-05-24T02:08:23.039Z,70.60
2018-05-24T02:10:51.343Z,70.80
2018-05-24T02:13:19.699Z,68.60
2018-05-24T02:15:48.032Z,69.00
2018-05-24T02:18:16.329Z,69.50
2018-05-24T02:20:44.618Z,68.70
2018-05-24T02:23:13.700Z,68.00
2018-05-24T02:25:42.004Z,67.80
2018-05-24T02:28:10.311Z,67.80
2018-05-24T02:30:38.801Z,68.00
2018-05-24T02:33:07.095Z,68.40
2018-05-24T02:35:35.417Z,69.50
2018-05-24T02:38:03.758Z,68.70
2018-05-24T02:40:31.736Z,68.20
2018-05-24T02:43:00.058Z,70.70
2018-05-24T02:45:28.555Z,68.70
2018-05-24T02:47:57.661Z,69.00
2018-05-24T02:50:25.987Z,69.00
2018-05-24T02:52:54.483Z,69.30
2018-05-24T02:55:22.795Z,68.70
2018-05-24T02:57:51.112Z,69.50
2018-05-24T03:00:19.404Z,70.40
2018-05-24T03:02:47.722Z,70.70
2018-05-24T03:05:16.030Z,69.80
2018-05-24T03:07:49.712Z,69.50
2018-05-24T03:10:18.017Z,69.20
2018-05-24T03:12:47.094Z,72.40
2018-05-24T03:15:15.455Z,72.40
2018-05-24T03:17:43.771Z,70.30
2018-05-24T03:20:12.083Z,69.90
2018-05-24T03:22:40.394Z,71.60
2018-05-24T03:25:08.720Z,70.00
2018-05-24T03:27:37.024Z,68.90
2018-05-24T03:30:05.350Z,69.30
2018-05-24T03:32:33.732Z,68.90
2018-05-24T03:35:02.042Z,69.00
2018-05-24T03:37:30.379Z,69.40
2018-05-24T03:39:58.855Z,69.70
2018-05-24T03:42:27.176Z,70.40
2018-05-24T03:44:55.472Z,71.10
2018-05-24T03:47:26.564Z,69.50
2018-05-24T03:49:54.873Z,69.50
2018-05-24T03:52:23.171Z,70.50
2018-05-24T03:54:51.483Z,68.50
2018-05-24T03:57:19.784Z,68.60
2018-05-24T04:00:08.256Z,69.30
2018-05-24T04:02:47.822Z,69.10
2018-05-24T04:05:16.156Z,68.10
2018-05-24T04:07:45.642Z,68.60
2018-05-24T04:10:13.940Z,69.50
2018-05-24T04:12:42.267Z,69.10
2018-05-24T04:15:10.585Z,68.60
2018-05-24T04:17:38.885Z,68.30
2018-05-24T04:20:07.198Z,69.60
2018-05-24T04:22:35.541Z,69.10
2018-05-24T04:25:04.290Z,68.40
2018-05-24T04:27:32.605Z,68.40
2018-05-24T04:30:01.099Z,69.80
2018-05-24T04:32:29.416Z,69.60
2018-05-24T04:34:57.733Z,70.20
2018-05-24T04:37:26.059Z,68.50
2018-05-24T04:39:54.164Z,69.00
2018-05-24T04:42:22.468Z,68.60
2018-05-24T04:44:51.552Z,69.10
2018-05-24T04:47:19.872Z,69.10
2018-05-24T04:49:48.959Z,68.40
2018-05-24T04:52:17.322Z,69.20
2018-05-24T04:54:45.935Z,68.70
2018-05-24T04:57:14.251Z,68.90
2018-05-24T04:59:42.585Z,71.10
2018-05-24T05:02:10.884Z,70.60
2018-05-24T05:04:39.226Z,70.90
2018-05-24T05:07:07.738Z,70.80
2018-05-24T05:09:36.036Z,70.30
2018-05-24T05:12:07.425Z,69.40
2018-05-24T05:14:35.801Z,68.80
2018-05-24T05:17:04.888Z,70.50
2018-05-24T05:19:33.202Z,68.40
2018-05-24T05:22:01.722Z,70.00
2018-05-24T05:24:30.036Z,67.00
2018-05-24T05:26:58.105Z,68.00
2018-05-24T05:29:26.431Z,65.40
2018-05-24T05:31:54.747Z,66.30
2018-05-24T05:34:23.227Z,67.20
2018-05-24T05:36:53.074Z,63.90
2018-05-24T05:39:21.377Z,64.00
2018-05-24T05:41:49.700Z,66.00
2018-05-24T05:44:18.023Z,65.10
2018-05-24T05:46:47.104Z,64.00
2018-05-24T05:49:15.462Z,64.00
2018-05-24T05:51:43.760Z,63.50
2018-05-24T05:54:12.102Z,61.30
2018-05-24T05:56:40.492Z,61.80
2018-05-24T05:59:08.808Z,60.00
2018-05-24T06:01:37.185Z,59.40
2018-05-24T06:04:07.362Z,59.10
2018-05-24T06:06:35.674Z,60.30
2018-05-24T06:09:03.179Z,58.40
2018-05-24T06:11:31.516Z,59.60
2018-05-24T06:13:59.650Z,58.60
2018-05-24T06:16:28.742Z,57.70
2018-05-24T06:18:57.159Z,57.60
2018-05-24T06:21:25.463Z,57.50
2018-05-24T06:23:54.337Z,56.70
2018-05-24T06:26:22.657Z,55.30
2018-05-24T06:28:51.551Z,55.10
2018-05-24T06:31:20.434Z,55.60
2018-05-24T06:33:49.300Z,54.00
2018-05-24T06:36:18.236Z,52.40
2018-05-24T06:38:47.143Z,52.60
2018-05-24T06:41:16.018Z,54.90
2018-05-24T06:43:44.914Z,54.40
2018-05-24T06:46:13.779Z,52.90
2018-05-24T06:48:43.429Z,52.40
2018-05-24T06:51:12.283Z,51.80
2018-05-24T06:53:41.626Z,52.30
2018-05-24T06:56:10.589Z,50.90
2018-05-24T06:58:39.481Z,51.00
2018-05-24T07:01:08.570Z,50.30
2018-05-24T07:03:37.608Z,51.10
2018-05-24T07:06:07.278Z,50.10
2018-05-24T07:08:36.148Z,50.00
2018-05-24T07:11:05.930Z,50.80
2018-05-24T07:13:35.684Z,52.70
2018-05-24T07:16:04.836Z,52.60
2018-05-24T07:18:33.725Z,51.30
2018-05-24T07:21:02.808Z,51.60
2018-05-24T07:23:31.684Z,53.20
2018-05-24T07:26:00.723Z,53.70
2018-05-24T07:28:29.590Z,53.50
2018-05-24T07:30:58.658Z,52.80
2018-05-24T07:33:27.556Z,53.00
2018-05-24T07:35:56.435Z,53.70
2018-05-24T07:38:25.372Z,52.80
2018-05-24T07:40:54.243Z,53.30
2018-05-24T07:43:23.142Z,53.70
2018-05-24T07:45:51.999Z,52.90
2018-05-24T07:48:21.677Z,52.20
2018-05-24T07:53:25.212Z,53.30
2018-05-24T07:55:54.076Z,53.10
2018-05-24T07:58:22.960Z,53.30
2018-05-24T08:00:51.829Z,54.30
2018-05-24T08:03:20.737Z,54.50
2018-05-24T08:05:49.633Z,52.10
2018-05-24T08:08:18.728Z,52.80
2018-05-24T08:10:47.606Z,53.00
2018-05-24T08:13:16.465Z,52.00
2018-05-24T08:15:44.800Z,50.00
2018-05-24T08:18:13.689Z,51.30
2018-05-24T08:20:42.580Z,52.70
2018-05-24T08:23:11.450Z,51.80
2018-05-24T08:25:40.382Z,52.70
2018-05-24T08:28:09.282Z,52.70
2018-05-24T08:30:38.321Z,53.00
2018-05-24T08:33:07.187Z,53.30
2018-05-24T08:35:36.107Z,53.60
2018-05-24T08:38:05.750Z,54.50
2018-05-24T08:40:34.715Z,54.60
2018-05-24T08:43:03.748Z,54.70
2018-05-24T08:45:32.619Z,54.60
2018-05-24T08:48:01.546Z,54.30
2018-05-24T08:50:30.436Z,57.40
2018-05-24T08:52:59.299Z,55.30
2018-05-24T08:55:28.980Z,54.70
2018-05-24T08:57:57.857Z,54.70
2018-05-24T09:00:26.833Z,56.10
2018-05-24T09:02:55.459Z,56.00
2018-05-24T09:05:24.347Z,57.40
2018-05-24T09:07:53.226Z,57.40
2018-05-24T09:10:22.120Z,56.20
2018-05-24T09:12:50.994Z,57.80
2018-05-24T09:15:19.901Z,56.60
2018-05-24T09:17:49.540Z,57.90
2018-05-24T09:20:18.507Z,57.90
2018-05-24T09:22:47.513Z,56.80
2018-05-24T09:25:16.405Z,56.60
2018-05-24T09:27:46.060Z,55.80
2018-05-24T09:30:14.984Z,55.80
2018-05-24T09:32:43.844Z,55.20
2018-05-24T09:35:12.733Z,54.70
2018-05-24T09:37:41.628Z,53.50
2018-05-24T09:40:10.517Z,52.60
2018-05-24T09:42:39.425Z,53.00
2018-05-24T09:45:08.288Z,53.60
2018-05-24T09:47:37.186Z,52.40
2018-05-24T09:50:06.059Z,53.50
2018-05-24T09:52:34.931Z,53.30
2018-05-24T09:55:03.860Z,53.50
2018-05-24T09:57:32.745Z,53.80
2018-05-24T10:00:01.646Z,53.10
2018-05-24T10:02:30.992Z,52.70
2018-05-24T10:04:59.860Z,52.90
2018-05-24T10:07:28.923Z,53.30
2018-05-24T10:09:57.798Z,52.70
2018-05-24T10:12:26.465Z,53.70
2018-05-24T10:14:55.342Z,52.00
2018-05-24T10:17:23.889Z,51.50
2018-05-24T10:19:52.778Z,50.80
2018-05-24T10:22:22.444Z,50.20
2018-05-24T10:24:51.439Z,50.20
2018-05-24T10:27:20.342Z,51.50
2018-05-24T10:29:49.429Z,51.10
2018-05-24T10:32:18.314Z,50.60
2018-05-24T10:34:47.228Z,50.40
2018-05-24T10:37:16.081Z,49.20
2018-05-24T10:39:44.973Z,50.70
2018-05-24T10:42:13.835Z,52.30
2018-05-24T10:44:42.739Z,51.20
2018-05-24T10:47:11.406Z,51.60
2018-05-24T10:49:40.295Z,52.30
2018-05-24T10:52:09.163Z,53.20
2018-05-24T10:54:38.037Z,52.50
2018-05-24T10:57:06.915Z,50.20
2018-05-24T10:59:35.822Z,51.70
2018-05-24T11:02:04.888Z,50.50
2018-05-24T11:04:33.805Z,51.00
2018-05-24T11:07:02.705Z,51.90
2018-05-24T11:09:31.612Z,52.90
2018-05-24T11:12:00.497Z,51.30
2018-05-24T11:14:29.464Z,51.00
2018-05-24T11:16:58.461Z,52.60
2018-05-24T11:19:27.341Z,53.30
2018-05-24T11:21:56.227Z,53.30
2018-05-24T11:24:25.116Z,54.00
2018-05-24T11:26:53.994Z,54.70
2018-05-24T11:29:22.902Z,56.40
2018-05-24T11:31:51.902Z,63.00
2018-05-24T11:34:20.883Z,65.40
2018-05-24T11:36:49.762Z,66.00
2018-05-24T11:39:19.447Z,66.20
2018-05-24T11:41:48.338Z,65.90
2018-05-24T11:44:17.221Z,64.70
2018-05-24T11:46:46.293Z,66.40
2018-05-24T11:49:15.184Z,65.90
2018-05-24T11:51:44.079Z,67.10
2018-05-24T11:54:12.969Z,66.40
2018-05-24T11:56:41.568Z,64.40
2018-05-24T11:59:10.457Z,63.40
2018-05-24T12:01:39.354Z,62.50
2018-05-24T12:04:08.253Z,62.70
2018-05-24T12:06:37.131Z,61.70
2018-05-24T12:09:05.481Z,60.70
2018-05-24T12:11:34.377Z,63.20
2018-05-24T12:14:03.282Z,61.50
2018-05-24T12:16:32.167Z,61.00
2018-05-24T12:19:01.047Z,56.20
2018-05-24T12:21:29.925Z,61.90
2018-05-24T12:23:58.955Z,63.10
2018-05-24T12:26:28.133Z,62.10
2018-05-24T12:28:57.025Z,61.80
2018-05-24T12:31:25.895Z,61.60
2018-05-24T12:33:54.814Z,61.10
2018-05-24T12:36:23.698Z,63.30
2018-05-24T12:38:52.586Z,65.60
2018-05-24T12:41:20.921Z,67.80
2018-05-24T12:43:49.813Z,66.60
2018-05-24T12:46:18.695Z,68.60
2018-05-24T12:48:47.612Z,69.80
2018-05-24T12:51:16.534Z,69.80
2018-05-24T12:53:46.293Z,66.90
2018-05-24T12:56:15.207Z,66.80
2018-05-24T12:58:44.098Z,66.40
2018-05-24T13:01:12.984Z,65.60
2018-05-24T13:03:41.879Z,63.20
2018-05-24T13:06:10.772Z,62.60
2018-05-24T13:08:39.666Z,61.40
2018-05-24T13:11:08.610Z,61.50
2018-05-24T13:13:38.219Z,59.30
2018-05-24T13:16:07.119Z,59.90
2018-05-24T13:18:36.087Z,59.00
2018-05-24T13:21:05.023Z,58.70
2018-05-24T13:23:33.939Z,59.10
2018-05-24T13:26:02.824Z,58.40
2018-05-24T13:28:31.704Z,57.70
2018-05-24T13:31:00.595Z,58.30
2018-05-24T13:33:29.207Z,57.90
2018-05-24T13:35:58.096Z,57.00
2018-05-24T13:38:26.968Z,58.00
2018-05-24T13:40:55.897Z,57.70
2018-05-24T13:43:24.808Z,57.20
2018-05-24T13:45:53.707Z,58.50
2018-05-24T13:48:22.590Z,58.30
2018-05-24T13:50:51.531Z,59.20
2018-05-24T13:53:20.425Z,60.00
2018-05-24T13:55:49.323Z,64.50
2018-05-24T13:58:19.245Z,66.20
2018-05-24T14:00:48.948Z,66.20
2018-05-24T14:03:17.846Z,66.20
2018-05-24T14:05:46.748Z,68.90
2018-05-24T14:08:16.438Z,73.70
2018-05-24T14:10:45.335Z,73.10
2018-05-24T14:13:14.276Z,77.40
2018-05-24T14:15:43.203Z,76.30
2018-05-24T14:18:12.119Z,77.20
2018-05-24T14:20:41.134Z,78.40
2018-05-24T14:23:10.029Z,77.30
2018-05-24T14:25:38.945Z,77.70
2018-05-24T14:28:07.880Z,76.90
2018-05-24T14:30:36.795Z,78.80
2018-05-24T14:33:05.695Z,79.20
2018-05-24T14:35:34.618Z,80.30
2018-05-24T14:38:04.038Z,84.80
2018-05-24T14:40:32.935Z,84.60
2018-05-24T14:43:01.845Z,82.50
2018-05-24T14:45:30.757Z,82.40
2018-05-24T14:50:53.393Z,84.00
2018-05-24T14:53:22.319Z,83.20
2018-05-24T14:55:51.225Z,86.00
2018-05-24T14:58:20.319Z,84.70
2018-05-24T15:00:49.215Z,83.80
2018-05-24T15:03:18.121Z,84.40
2018-05-24T15:05:47.256Z,83.10
2018-05-24T15:08:16.170Z,84.00
2018-05-24T15:10:45.216Z,85.50
2018-05-24T15:13:25.449Z,84.20
2018-05-24T15:15:54.374Z,85.10
2018-05-24T15:18:24.155Z,82.90
2018-05-24T15:20:53.070Z,82.80
2018-05-24T15:23:31.059Z,81.10
2018-05-24T15:25:59.950Z,79.80
2018-05-24T15:28:28.860Z,82.30
2018-05-24T15:30:57.848Z,80.50
2018-05-24T15:33:26.828Z,82.80
2018-05-24T15:35:55.890Z,80.00
2018-05-24T15:38:24.851Z,74.90
2018-05-24T15:40:53.770Z,73.60
2018-05-24T15:43:22.942Z,78.60
2018-05-24T15:45:51.873Z,77.50
2018-05-24T15:48:20.776Z,74.80
2018-05-24T15:50:49.732Z,78.30
2018-05-24T15:53:18.835Z,78.40
2018-05-24T15:55:47.713Z,76.60
2018-05-24T15:58:16.657Z,76.90
2018-05-24T16:00:45.549Z,77.60
2018-05-24T16:03:15.239Z,77.20
2018-05-24T16:05:44.168Z,77.30
2018-05-24T16:08:13.138Z,76.40
2018-05-24T16:10:42.032Z,74.10
2018-05-24T16:13:10.987Z,72.50
2018-05-24T16:15:39.955Z,75.20
2018-05-24T16:18:08.871Z,73.40
2018-05-24T16:20:37.778Z,72.70
2018-05-24T16:23:06.676Z,72.60
2018-05-24T16:25:35.019Z,69.40
2018-05-24T16:28:03.947Z,71.10
2018-05-24T16:30:32.826Z,69.00
2018-05-24T16:33:01.727Z,67.80
2018-05-24T16:35:30.617Z,67.80
2018-05-24T16:37:59.488Z,68.30
2018-05-24T16:40:28.425Z,66.90
2018-05-24T16:42:57.324Z,66.80
2018-05-24T16:45:26.195Z,65.90
2018-05-24T16:47:55.086Z,66.10
2018-05-24T16:50:23.963Z,66.10
2018-05-24T16:52:52.842Z,64.90
2018-05-24T16:55:21.738Z,64.50
2018-05-24T16:57:50.637Z,64.80
2018-05-24T17:00:19.523Z,64.00
2018-05-24T17:02:48.404Z,63.10
2018-05-24T17:05:17.320Z,61.80
2018-05-24T17:07:46.438Z,61.40
2018-05-24T17:10:15.166Z,61.40
2018-05-24T17:12:44.061Z,61.60
2018-05-24T17:15:12.933Z,62.30
2018-05-24T17:17:41.841Z,63.40
2018-05-24T17:20:10.753Z,63.00
2018-05-24T17:22:39.625Z,61.70
2018-05-24T17:25:08.506Z,62.40
2018-05-24T17:27:37.458Z,63.30
2018-05-24T17:30:06.349Z,63.00
2018-05-24T17:32:35.282Z,63.10
2018-05-24T17:35:04.489Z,63.70
2018-05-24T17:37:33.437Z,62.70
2018-05-24T17:40:02.309Z,62.50
2018-05-24T17:42:32.004Z,63.40
2018-05-24T17:45:01.114Z,63.20
2018-05-24T17:47:30.037Z,64.80
2018-05-24T17:49:58.954Z,65.00
2018-05-24T17:52:27.992Z,63.00
2018-05-24T17:54:58.133Z,63.60
2018-05-24T17:57:27.413Z,63.60
2018-05-24T17:59:56.364Z,62.50
2018-05-24T18:02:25.413Z,63.00
2018-05-24T18:04:54.312Z,62.10
2018-05-24T18:07:23.203Z,62.70
2018-05-24T18:09:52.550Z,63.00
2018-05-24T18:12:21.486Z,62.20
2018-05-24T18:14:50.437Z,63.20
2018-05-24T18:17:19.510Z,63.40
2018-05-24T18:19:48.421Z,64.00
2018-05-24T18:22:17.139Z,64.70
2018-05-24T18:24:46.099Z,64.90
2018-05-24T18:27:15.088Z,65.00
2018-05-24T18:29:43.998Z,64.80
2018-05-24T18:32:12.883Z,66.10
2018-05-24T18:34:41.249Z,66.30
2018-05-24T18:37:10.176Z,66.60
2018-05-24T18:39:39.239Z,66.90
2018-05-24T18:42:08.905Z,68.60
2018-05-24T18:44:37.807Z,67.80
2018-05-24T18:47:06.730Z,68.80
2018-05-24T18:49:35.643Z,68.20
2018-05-24T18:52:05.220Z,68.80
2018-05-24T18:54:34.113Z,69.00
2018-05-24T18:57:03.042Z,69.80
2018-05-24T18:59:32.047Z,70.40
2018-05-24T19:02:00.985Z,70.70
2018-05-24T19:04:30.250Z,71.00
2018-05-24T19:06:59.183Z,70.70
2018-05-24T19:09:28.224Z,71.90
2018-05-24T19:11:57.140Z,71.50
2018-05-24T19:14:25.775Z,72.00
2018-05-24T19:16:54.707Z,72.00
2018-05-24T19:19:23.616Z,72.80
2018-05-24T19:21:52.528Z,73.20
2018-05-24T19:24:22.201Z,74.00
2018-05-24T19:26:51.102Z,74.00
2018-05-24T19:29:20.044Z,74.20
2018-05-24T19:31:48.951Z,74.30
2018-05-24T19:34:18.041Z,74.60
2018-05-24T19:36:46.915Z,74.80
2018-05-24T19:39:15.820Z,74.70
2018-05-24T19:41:44.728Z,75.30
2018-05-24T19:44:13.779Z,75.10
2018-05-24T19:46:42.678Z,75.50
2018-05-24T19:49:11.615Z,75.40
2018-05-24T19:51:40.516Z,75.60
2018-05-24T19:54:09.424Z,75.50
2018-05-24T19:56:38.326Z,76.00
2018-05-24T19:59:07.239Z,75.80
2018-05-24T20:01:36.162Z,76.00
2018-05-24T20:04:05.846Z,76.60
2018-05-24T20:06:34.746Z,76.50
2018-05-24T20:09:03.186Z,76.80
2018-05-24T20:11:32.089Z,77.20
2018-05-24T20:14:01.048Z,77.50
2018-05-24T20:16:29.937Z,77.20
2018-05-24T20:18:58.834Z,77.70
2018-05-24T20:21:27.716Z,77.20
2018-05-24T20:23:56.666Z,77.10
2018-05-24T20:26:25.023Z,77.80
2018-05-24T20:28:54.091Z,77.90
2018-05-24T20:31:23.102Z,77.30
2018-05-24T20:33:51.430Z,77.80
2018-05-24T20:36:20.345Z,77.80
2018-05-24T20:38:48.695Z,77.70
2018-05-24T20:41:17.598Z,77.70
2018-05-24T20:43:45.954Z,78.40
2018-05-24T20:46:14.260Z,78.80
2018-05-24T20:48:42.377Z,78.90
2018-05-24T20:51:10.706Z,79.20
2018-05-24T20:53:39.912Z,79.30
2018-05-24T20:56:08.217Z,79.30
2018-05-24T20:58:39.714Z,79.80
2018-05-24T21:01:08.052Z,79.90
2018-05-24T21:03:36.975Z,80.00
2018-05-24T21:06:05.331Z,79.80
2018-05-24T21:08:33.318Z,80.10
2018-05-24T21:11:01.663Z,80.20
2018-05-24T21:13:30.004Z,80.60
2018-05-24T21:15:59.114Z,81.10
2018-05-24T21:18:27.462Z,81.00
2018-05-24T21:20:55.815Z,80.80
2018-05-24T21:23:24.181Z,80.90
2018-05-24T21:25:52.521Z,81.00
2018-05-24T21:28:20.831Z,81.00
2018-05-24T21:30:49.170Z,81.00
2018-05-24T21:33:17.480Z,81.30
2018-05-24T21:35:46.589Z,81.60
2018-05-24T21:38:14.905Z,81.60
2018-05-24T21:40:43.223Z,81.30
2018-05-24T21:43:11.600Z,81.70
2018-05-24T21:45:39.929Z,81.50
2018-05-24T21:48:08.261Z,81.30
2018-05-24T21:50:36.602Z,81.70
2018-05-24T21:53:10.904Z,81.80
2018-05-24T21:55:39.230Z,81.80
2018-05-24T21:58:10.727Z,81.60
2018-05-24T22:00:45.348Z,82.00
2018-05-24T22:03:13.708Z,82.00
2018-05-24T22:05:42.030Z,82.30
2018-05-24T22:08:11.130Z,82.60
2018-05-24T22:10:39.500Z,82.60
2018-05-24T22:13:08.583Z,82.90
2018-05-24T22:15:36.907Z,82.80
2018-05-24T22:18:04.907Z,83.20
2018-05-24T22:20:33.235Z,82.90
2018-05-24T22:23:02.382Z,83.20
2018-05-24T22:25:30.706Z,83.20
2018-05-24T22:27:59.038Z,83.20
2018-05-24T22:30:27.371Z,83.40
2018-05-24T22:32:55.723Z,83.70
2018-05-24T22:35:24.057Z,83.90
2018-05-24T22:37:52.389Z,83.90
2018-05-24T22:40:20.732Z,83.70
2018-05-24T22:42:49.812Z,83.70
2018-05-24T22:45:18.128Z,83.60
2018-05-24T22:47:46.483Z,83.70
2018-05-24T22:50:15.575Z,83.70
2018-05-24T22:52:44.144Z,83.60
2018-05-24T22:55:12.453Z,83.90
2018-05-24T22:57:40.774Z,83.90
2018-05-24T23:00:08.872Z,84.40
2018-05-24T23:02:37.207Z,84.70
2018-05-24T23:05:05.458Z,85.20
2018-05-24T23:07:33.907Z,86.30
2018-05-24T23:10:02.219Z,86.30
2018-05-24T23:12:30.547Z,86.40
2018-05-24T23:14:58.879Z,87.20
2018-05-24T23:17:27.202Z,87.20
2018-05-24T23:19:55.528Z,87.60
2018-05-24T23:22:35.697Z,86.90
2018-05-24T23:25:03.699Z,86.90
2018-05-24T23:27:32.031Z,86.80
2018-05-24T23:30:00.344Z,87.20
2018-05-24T23:32:28.884Z,87.00
2018-05-24T23:34:57.214Z,87.20
2018-05-24T23:37:25.529Z,86.60
2018-05-24T23:39:53.851Z,86.80
2018-05-24T23:42:22.192Z,86.70
2018-05-24T23:44:51.317Z,86.70
2018-05-24T23:47:19.619Z,87.10
2018-05-24T23:49:47.947Z,87.00
2018-05-24T23:52:17.048Z,86.90
2018-05-24T23:54:46.487Z,86.80
2018-05-24T23:57:14.820Z,87.10
2018-05-24T23:59:43.163Z,86.80
